Hlavní strana
METAR-TAF:

METAR-TAF

Letiště :

Letiště Haneda

Tokio-Haneda, Japonsko

zeměpisná šířka: 35-33N, zeměpisná délka: 139-47E, výška: 5 m

Aktuální stav počasí

Zpráva byla vytvořena před 38 minutami, v 18:30 UTC
Jihojihozápadní vítr 17 kt
Teplota 28°C
Vlhkost vzduchu 84%
Tlak 1008 hPa
Viditelnost 10 km a více
Skoro jasno ve výšce 1500 ft
Polojasno ve výšce 15000 ft
Oblačno až skoro zataženo

METAR: RJTT 151830Z 20017KT 9999 FEW015 SCT150 BKN/// 28/25 Q1008 NOSIG

Čas: 04:08 (19:08 UTC)

Předpověď počasí

Zpráva byla vytvořena před 2 hodinami a 0 minutami, v 17:08 UTC
Předpověď platná od 15 v 18 UTC do 17 v 00 UTC
Jihojihozápadní vítr 18 kt
Viditelnost 10 km a více
Skoro jasno ve výšce 2000 ft
Změna
od 15 v 21 UTC do 15 v 23 UTC
Jihojihozápadní vítr 26 kt s nárazy do 36 kt
Změna
od 16 v 15 UTC do 16 v 18 UTC
Severoseverozápadní vítr 18 kt

TAF: RJTT 151708Z 1518/1700 20018KT 9999 FEW020 BECMG 1521/1523 20026G36KT BECMG 1615/1618 34018KT

Stav a předpovědi počasí z více než 4 000 letišť (zprávy METAR a TAF).

Červené a žluté tečky na mapě představují dostupné meteorologické stanice.

Když kurzor umístíte na tečku, zobrazí se název stanice.

Pak kliknutím zobrazíte stav a předpověď počasí.

Chcete-li změnit mapu, kliknutím na zelené tlačítko se znaménkem +mapu přiblížíte, kliknutím na zelené tlačítko se znaménkem – mapu oddálíte a kliknutím na zelené šipky přejdete na sousední mapy.


METAR-TAF: